Latest Weather Observations for Mount Ginini

IDN60801

Issued at 9:05 pm EST Monday 1 September 2014 (issued every 30 minutes, with the page automatically refreshed every 10 minutes)

About weather observations | Map of weather stations | Latest weather observations for NSW | Other Formats
Station Details ID: 070349 Name: MOUNT GININI AWS Lat: -35.53 Lon: 148.77 Height: 1760.0 m
Data from the previous 72 hours. | See also: Recent months at Mount Ginini
Date/Time
EST
Temp
°C
App
Temp
°C
Dew
Point
Rel
Hum
%
Delta-T
°C
Wind Press
QNH
hPa
Press
MSL
hPa
Rain
since 9 am
mm
Dir
 
Spd
km/h
Gust
km/h
Spd
kts
Gust
kts
01/09:00pm 3.6 -2.1 2.9 95 0.3 WNW 22 39 12 21 - - 0.0
01/08:30pm 3.8 -2.6 3.1 95 0.3 NW 26 48 14 26 - - 0.0
01/08:05pm 4.0 -2.8 3.1 94 0.4 NW 28 46 15 25 - - 0.0
01/08:00pm 4.0 -2.4 3.1 94 0.4 NW 26 43 14 23 - - 0.0
01/07:30pm 4.2 -2.6 3.3 94 0.4 NW 28 48 15 26 - - 0.0
01/07:06pm 4.4 -2.3 3.5 94 0.4 NW 28 52 15 28 - - 0.0
01/07:00pm 4.5 -1.8 3.6 94 0.4 NW 26 46 14 25 - - 0.0
01/06:30pm 4.6 -2.1 3.7 94 0.4 NW 28 46 15 25 - - 0.0
01/06:29pm 4.6 -2.1 3.7 94 0.4 NW 28 46 15 25 - - 0.0
01/06:00pm 4.3 -1.7 3.4 94 0.4 NW 24 52 13 28 - - 0.0
01/05:30pm 4.6 -1.3 3.7 94 0.4 WNW 24 43 13 23 - - 0.0
01/05:00pm 5.1 -0.6 2.8 85 1.1 WNW 22 39 12 21 - - 0.0
01/04:30pm 6.5 1.0 1.6 71 2.2 WNW 20 39 11 21 - - 0.0
01/04:00pm 6.2 0.1 0.1 65 2.7 WNW 22 46 12 25 - - 0.0
01/03:30pm 7.8 2.6 0.1 58 3.4 W 17 39 9 21 - - 0.0
01/03:00pm 7.9 2.5 1.1 62 3.1 WNW 19 41 10 22 - - 0.0
01/02:30pm 7.3 1.1 -0.6 57 3.4 WNW 22 41 12 22 - - 0.0
01/02:00pm 8.5 2.9 -0.3 54 3.9 WNW 19 35 10 19 - - 0.0
01/01:30pm 8.9 3.1 -0.1 53 4.0 WNW 20 41 11 22 - - 0.0
01/01:00pm 8.1 1.9 -0.4 55 3.7 WNW 22 41 12 22 - - 0.0
01/12:30pm 7.5 2.4 0.9 63 3.0 WNW 17 33 9 18 - - 0.0
01/12:00pm 6.9 1.9 1.6 69 2.4 WNW 17 30 9 16 - - 0.0
01/11:30am 7.4 2.6 2.5 71 2.3 WNW 17 32 9 17 - - 0.0
01/11:00am 6.9 2.2 3.2 77 1.7 WNW 17 30 9 16 - - 0.0
01/10:30am 6.9 2.4 4.0 82 1.4 WNW 17 33 9 18 - - 0.0
01/10:00am 5.6 1.2 4.7 94 0.4 W 17 32 9 17 - - 0.0
01/09:30am 3.8 -0.5 3.1 95 0.3 W 15 26 8 14 - - 0.0
01/09:00am 3.2 -1.2 2.8 97 0.2 W 15 24 8 13 - - 0.0
01/08:30am 2.8 -2.4 2.5 98 0.1 W 19 35 10 19 - - 0.0
01/08:00am 2.3 -2.6 2.0 98 0.1 W 17 35 9 19 - - 0.0
01/07:30am 2.2 -3.1 1.8 97 0.2 W 19 30 10 16 - - 0.0
01/07:00am 1.9 -3.7 1.5 97 0.2 W 20 35 11 19 - - 0.0
01/06:30am 1.7 -3.9 1.1 96 0.3 W 20 37 11 20 - - 0.0
01/06:00am 1.4 -4.1 0.8 96 0.3 W 19 28 10 15 - - 0.0
01/05:30am 1.2 -4.3 0.3 94 0.4 W 19 32 10 17 - - 0.0
01/05:00am 1.4 -5.0 -1.5 81 1.2 W 22 35 12 19 - - 0.0
01/04:30am 1.4 -4.7 -3.5 70 1.9 W 19 30 10 16 - - 0.0
01/04:00am 1.5 -4.3 -4.6 64 2.3 W 17 26 9 14 - - 0.0
01/03:30am 1.8 -4.2 -6.3 55 3.0 W 17 26 9 14 - - 0.0
01/03:00am 2.1 -3.8 -6.0 55 3.0 W 17 30 9 16 - - 0.0
01/02:30am 2.0 -4.2 -4.7 61 2.6 W 19 32 10 17 - - 0.0
01/02:00am 1.9 -3.9 -4.6 62 2.5 W 17 24 9 13 - - 0.0
01/01:30am 2.2 -3.5 -3.7 65 2.4 WNW 17 24 9 13 - - 0.0
01/01:00am 3.0 -2.6 -6.6 49 3.6 WNW 15 22 8 12 - - 0.0
01/12:30am 2.9 -2.6 -5.2 55 3.1 WNW 15 24 8 13 - - 0.0
01/12:00am 2.5 -2.2 -1.7 74 1.7 WNW 13 19 7 10 - - 0.0
 
Date/Time
EST
Temp
°C
App
Temp
°C
Dew
Point
Rel
Hum
%
Delta-T
°C
Wind Press
QNH
hPa
Press
MSL
hPa
Rain
since 9 am
mm
Dir
 
Spd
km/h
Gust
km/h
Spd
kts
Gust
kts
31/11:30pm 2.6 -1.8 0.2 84 1.0 WNW 13 19 7 10 - - 0.0
31/11:00pm 2.7 -1.3 0.4 85 1.0 WNW 11 17 6 9 - - 0.0
31/10:30pm 2.7 -1.1 1.8 94 0.4 W 11 15 6 8 - - 0.0
31/10:00pm 2.0 -1.8 1.6 97 0.2 W 11 13 6 7 - - 0.0
31/09:30pm 1.8 -2.4 1.4 97 0.2 WSW 13 17 7 9 - - 0.0
31/09:00pm 1.9 -2.4 1.3 96 0.3 WSW 13 19 7 10 - - 0.0
31/08:30pm 3.0 -0.3 2.3 95 0.3 W 9 11 5 6 - - 0.0
31/08:00pm 2.1 -2.1 1.5 96 0.3 W 13 15 7 8 - - 0.0
31/07:30pm 2.4 -1.8 1.8 96 0.3 WSW 13 17 7 9 - - 0.0
31/07:00pm 2.7 -1.4 2.0 95 0.3 WSW 13 19 7 10 - - 0.0
31/06:30pm 3.3 -0.8 2.4 94 0.4 WSW 13 20 7 11 - - 0.0
31/06:00pm 3.8 -0.6 2.8 93 0.5 WSW 15 22 8 12 - - 0.0
31/05:30pm 5.1 1.2 3.3 88 0.8 WSW 13 20 7 11 - - 0.0
31/05:00pm 6.6 2.6 2.7 76 1.8 W 13 22 7 12 - - 0.0
31/04:30pm 8.3 5.1 2.8 68 2.6 W 9 17 5 9 - - 0.0
31/04:00pm 9.6 6.4 2.9 63 3.2 WNW 9 17 5 9 - - 0.0
31/03:30pm 9.7 6.2 1.4 56 3.8 WSW 9 17 5 9 - - 0.0
31/03:00pm 10.1 6.7 -0.4 48 4.7 WSW 7 19 4 10 - - 0.0
31/02:30pm 9.7 5.8 -1.3 46 4.8 W 9 20 5 11 - - 0.0
31/02:00pm 9.7 5.2 -2.9 41 5.3 WSW 11 19 6 10 - - 0.0
31/01:30pm 9.9 5.5 -2.7 41 5.3 W 11 22 6 12 - - 0.0
31/01:00pm 9.3 5.2 -3.3 41 5.2 W 9 19 5 10 - - 0.0
31/12:30pm 8.9 4.4 -3.0 43 4.9 W 11 22 6 12 - - 0.0
31/12:00pm 8.3 3.7 -0.7 53 3.9 W 13 22 7 12 - - 0.0
31/11:30am 7.5 3.3 -1.2 54 3.7 W 11 19 6 10 - - 0.0
31/11:00am 7.4 3.5 -1.5 53 3.8 W 9 19 5 10 - - 0.0
31/10:30am 6.6 2.3 -2.0 54 3.6 W 11 20 6 11 - - 0.0
31/10:00am 5.9 1.4 -2.9 53 3.5 WSW 11 19 6 10 - - 0.0
31/09:30am 5.1 0.6 -3.2 55 3.3 WSW 11 20 6 11 - - 0.0
31/09:00am 4.5 0.3 -4.2 53 3.3 WSW 9 17 5 9 - - 0.0
31/08:30am 3.8 -0.2 -5.4 51 3.4 SW 7 15 4 8 - - 0.0
31/08:00am 3.0 -0.9 -6.4 50 3.5 SW 6 11 3 6 - - 0.0
31/07:30am 1.6 -3.2 -6.4 55 2.9 SSW 11 15 6 8 - - 0.0
31/07:00am 1.1 -3.8 -7.1 54 2.9 SSW 11 15 6 8 - - 0.0
31/06:30am 2.2 -1.4 -7.1 50 3.4 SSE 4 6 2 3 - - 0.0
31/06:00am 1.9 -2.1 -7.4 50 3.3 S 6 11 3 6 - - 0.0
31/05:30am 1.4 -3.1 -6.9 54 3.0 S 9 13 5 7 - - 0.0
31/05:00am 0.7 -3.9 -4.5 68 1.9 SSW 11 13 6 7 - - 0.0
31/04:30am 0.9 -4.0 -3.0 75 1.5 SSW 13 15 7 8 - - 0.0
31/04:00am 0.5 -4.0 -0.4 94 0.4 SW 13 17 7 9 - - 0.0
31/03:30am 0.6 -3.9 -0.3 94 0.4 SW 13 17 7 9 - - 0.0
31/03:00am 0.6 -3.5 -0.3 94 0.4 SW 11 13 6 7 - - 0.0
31/02:30am 0.5 -3.3 -0.4 94 0.4 WSW 9 13 5 7 - - 0.0
31/02:00am 0.5 -3.2 -0.2 95 0.3 SW 9 11 5 6 - - 0.0
31/01:30am 0.5 -2.8 -0.1 96 0.2 WSW 7 9 4 5 - - 0.0
31/01:00am 0.6 -3.1 0.0 96 0.2 WSW 9 11 5 6 - - 0.0
31/12:30am 0.5 -3.2 -0.1 96 0.2 W 9 13 5 7 - - 0.0
31/12:00am 0.9 -2.3 0.5 97 0.2 W 7 9 4 5 - - 0.0
 
Date/Time
EST
Temp
°C
App
Temp
°C
Dew
Point
Rel
Hum
%
Delta-T
°C
Wind Press
QNH
hPa
Press
MSL
hPa
Rain
since 9 am
mm
Dir
 
Spd
km/h
Gust
km/h
Spd
kts
Gust
kts
30/11:30pm 1.1 -1.9 0.7 97 0.2 W 6 6 3 3 - - 0.0
30/11:00pm 1.4 -1.6 1.0 97 0.2 W 6 7 3 4 - - 0.0
30/10:30pm 1.6 -1.0 1.0 96 0.3 W 4 4 2 2 - - 0.0
30/10:00pm 1.8 -0.8 1.2 96 0.3 SSW 4 4 2 2 - - 0.0
30/09:30pm 2.3 -0.1 1.9 97 0.2 SW 4 6 2 3 - - 0.0
30/09:00pm 2.4 0.3 2.0 97 0.2 NNW 2 9 1 5 - - 0.0
30/08:30pm 2.5 -0.3 1.9 96 0.3 NNW 6 7 3 4 - - 0.0
30/08:00pm 2.5 -0.5 1.9 96 0.3 NW 7 11 4 6 - - 0.0
30/07:30pm 3.0 0.2 2.3 95 0.3 NW 6 9 3 5 - - 0.0
30/07:00pm 3.7 0.9 3.0 95 0.3 WNW 7 11 4 6 - - 0.0
30/06:30pm 4.2 1.6 3.3 94 0.4 N 6 15 3 8 - - 0.0
30/06:00pm 4.2 1.6 3.2 93 0.5 NNE 6 13 3 7 - - 0.0
30/05:30pm 4.8 1.9 2.5 85 1.0 N 7 15 4 8 - - 0.0
30/05:00pm 6.2 3.9 2.7 78 1.6 NNE 4 11 2 6 - - 0.0
30/04:30pm 6.1 3.2 2.4 77 1.7 NE 7 15 4 8 - - 0.0
30/04:00pm 6.6 3.8 2.9 77 1.7 NNE 7 13 4 7 - - 0.0
30/03:30pm 7.0 4.2 2.3 72 2.2 N 6 15 3 8 - - 0.0
30/03:00pm 7.8 4.7 1.6 65 2.8 NE 7 13 4 7 - - 0.0
30/02:30pm 7.9 4.9 1.1 62 3.1 NE 6 11 3 6 - - 0.0
30/02:00pm 7.4 4.3 -2.9 48 4.2 SSW 4 11 2 6 - - 0.0
30/01:30pm 9.1 6.7 0.0 53 4.1 NNE 2 7 1 4 - - 0.0
30/01:00pm 8.5 5.1 -1.9 48 4.4 NNW 6 11 3 6 - - 0.0
30/12:30pm 7.0 4.4 -1.9 53 3.7 ESE 2 6 1 3 - - 0.0
30/12:00pm 6.3 3.0 -1.3 58 3.2 E 6 11 3 6 - - 0.0
30/11:30am 5.6 2.3 0.4 69 2.3 E 7 17 4 9 - - 0.0
30/11:00am 5.0 1.5 1.5 78 1.6 E 9 17 5 9 - - 0.0
30/10:30am 3.8 1.1 2.5 91 0.6 ESE 6 17 3 9 - - 0.0
30/10:00am 2.9 -1.2 2.0 94 0.4 E 13 30 7 16 - - 0.0
30/09:30am 2.6 -2.3 1.9 95 0.3 ESE 17 32 9 17 - - 0.0
30/09:00am 1.9 -3.5 1.0 94 0.4 ESE 19 32 10 17 - - 0.0
30/08:30am 1.3 -5.2 0.6 95 0.3 E 24 33 13 18 - - 0.0
30/08:00am 0.7 -4.9 0.0 95 0.3 E 19 33 10 18 - - 0.0
30/07:30am -0.2 -5.2 -1.0 94 0.3 ESE 15 32 8 17 - - 0.0
30/07:00am -1.6 -6.0 -2.4 94 0.2 ESE 11 37 6 20 - - 0.0
30/06:30am -1.7 -6.0 -4.7 80 1.0 ESE 9 26 5 14 - - 0.0
30/06:00am -1.8 -6.4 -7.7 64 1.9 ESE 9 28 5 15 - - 0.0
30/05:30am -1.4 -6.1 -8.8 57 2.3 ESE 9 24 5 13 - - 0.0
30/05:00am -1.2 -5.5 -9.1 55 2.5 ESE 7 30 4 16 - - 0.0
30/04:30am -0.1 -4.9 -10.9 44 3.3 E 9 28 5 15 - - 0.0
30/04:00am -0.1 -4.9 -10.3 46 3.2 ESE 9 26 5 14 - - 0.0
30/03:30am 1.2 -3.7 -12.5 35 4.2 ESE 9 33 5 18 - - 0.0
30/03:00am 1.4 -3.5 -12.0 36 4.2 ESE 9 28 5 15 - - 0.0
30/02:30am 0.7 -3.9 -8.0 52 3.0 ESE 9 26 5 14 - - 0.0
30/02:00am 0.9 -4.0 -7.3 54 2.8 ESE 11 33 6 18 - - 0.0
30/01:30am 1.7 -3.7 -8.4 47 3.5 ESE 13 39 7 21 - - 0.0
30/01:00am 1.5 -3.3 -5.8 58 2.7 SE 11 32 6 17 - - 0.0
30/12:30am 0.5 -3.6 -0.2 95 0.3 SE 11 28 6 15 - - 0.0
30/12:00am 0.2 -3.9 -0.2 97 0.2 SE 11 26 6 14 - - 0.0
 
Date/Time
EST
Temp
°C
App
Temp
°C
Dew
Point
Rel
Hum
%
Delta-T
°C
Wind Press
QNH
hPa
Press
MSL
hPa
Rain
since 9 am
mm
Dir
 
Spd
km/h
Gust
km/h
Spd
kts
Gust
kts
29/11:30pm 0.2 -4.3 -0.1 98 0.1 SE 13 28 7 15 - - 0.0
29/11:00pm 0.5 -4.7 0.2 98 0.1 SSE 17 32 9 17 - - 0.0
29/10:30pm 1.1 -4.0 0.7 97 0.2 SSE 17 32 9 17 - - 0.0
29/10:00pm 1.1 -4.6 0.7 97 0.2 SSE 20 30 11 16 - - 0.0
29/09:30pm 1.4 -4.1 0.8 96 0.3 SSE 19 32 10 17 - - 0.0

Other Formats:

Comma delimited format used in spreadsheet applications
http://www.bom.gov.au/fwo/IDN60801/IDN60801.95925.axf

JavaScript Object Notation format (JSON) in row-major order
http://www.bom.gov.au/fwo/IDN60801/IDN60801.95925.json